createdAt,value
2019-05-02T00:01:27.592Z,23.45
2019-05-02T00:04:30.874Z,19.82
2019-05-02T00:07:34.345Z,23.38
2019-05-02T00:10:37.733Z,25.40
2019-05-02T00:13:41.233Z,21.95
2019-05-02T00:16:45.090Z,23.75
2019-05-02T00:19:51.122Z,25.45
2019-05-02T00:22:55.537Z,23.20
2019-05-02T00:25:58.854Z,25.40
2019-05-02T00:29:02.161Z,20.95
2019-05-02T00:32:05.572Z,17.65
2019-05-02T00:35:08.867Z,20.37
2019-05-02T00:38:12.137Z,24.35
2019-05-02T00:41:15.440Z,20.32
2019-05-02T00:44:20.285Z,24.02
2019-05-02T00:47:42.326Z,28.75
2019-05-02T00:50:45.275Z,18.15
2019-05-02T00:53:49.553Z,19.52
2019-05-02T00:56:52.821Z,17.98
2019-05-02T00:59:56.156Z,19.55
2019-05-02T01:03:01.042Z,20.30
2019-05-02T01:06:04.344Z,20.00
2019-05-02T01:09:11.018Z,18.10
2019-05-02T01:12:25.168Z,18.98
2019-05-02T01:15:18.041Z,19.12
2019-05-02T01:18:23.416Z,21.73
2019-05-02T01:21:26.565Z,17.00
2019-05-02T01:24:34.110Z,17.80
2019-05-02T01:27:57.089Z,20.37
2019-05-02T01:31:18.259Z,16.95
2019-05-02T01:34:43.053Z,17.40
2019-05-02T01:38:14.356Z,17.90
2019-05-02T01:41:17.726Z,18.48
2019-05-02T01:44:20.905Z,18.60
2019-05-02T01:47:24.268Z,16.17
2019-05-02T01:50:28.918Z,22.85
2019-05-02T01:53:34.649Z,18.62
2019-05-02T01:56:38.701Z,19.20
2019-05-02T01:59:42.948Z,23.60
2019-05-02T02:02:45.883Z,19.90
2019-05-02T02:05:49.221Z,19.98
2019-05-02T02:08:52.474Z,18.90
2019-05-02T02:11:55.665Z,15.72
2019-05-02T02:14:58.917Z,23.27
2019-05-02T02:18:02.363Z,19.17
2019-05-02T02:21:15.240Z,22.15
2019-05-02T02:24:26.852Z,20.75
2019-05-02T02:27:30.107Z,20.27
2019-05-02T02:30:33.429Z,24.35
2019-05-02T02:33:40.863Z,21.42
2019-05-02T02:36:42.761Z,21.87
2019-05-02T02:39:48.525Z,24.25
2019-05-02T02:42:50.870Z,23.73
2019-05-02T02:46:38.063Z,23.95
2019-05-02T02:49:36.537Z,25.15
2019-05-02T02:52:44.464Z,26.00
2019-05-02T02:55:44.754Z,26.60
2019-05-02T02:58:48.246Z,27.48
2019-05-02T03:01:51.305Z,28.07
2019-05-02T03:04:54.611Z,26.05
2019-05-02T03:07:59.421Z,29.48
2019-05-02T03:11:03.041Z,30.43
2019-05-02T03:14:12.286Z,24.67
2019-05-02T03:17:20.514Z,21.40
2019-05-02T03:20:20.808Z,27.75
2019-05-02T03:23:24.199Z,26.65
2019-05-02T03:26:27.816Z,25.25
2019-05-02T03:29:41.290Z,22.40
2019-05-02T03:32:36.629Z,22.22
2019-05-02T03:35:44.165Z,22.17
2019-05-02T03:38:45.029Z,19.85
2019-05-02T03:41:48.096Z,20.87
2019-05-02T03:44:56.210Z,21.23
2019-05-02T03:47:56.438Z,21.02
2019-05-02T03:50:59.605Z,18.87
2019-05-02T03:54:07.264Z,17.52
2019-05-02T03:57:07.761Z,20.43
2019-05-02T04:00:13.828Z,19.85
2019-05-02T04:03:17.915Z,20.02
2019-05-02T04:06:23.601Z,19.20
2019-05-02T04:09:37.942Z,18.27
2019-05-02T04:12:37.057Z,21.07
2019-05-02T06:52:13.666Z,10.15
2019-05-02T07:51:09.915Z,14.63
2019-05-02T07:59:23.308Z,14.25
2019-05-02T08:02:25.001Z,16.55
2019-05-02T08:05:29.585Z,12.68
2019-05-02T08:08:36.265Z,14.90
2019-05-02T08:11:40.161Z,15.10
2019-05-02T08:14:44.144Z,16.50
2019-05-02T08:17:53.166Z,22.98
2019-05-02T08:20:56.021Z,17.10
2019-05-02T08:24:02.216Z,18.60
2019-05-02T08:27:38.582Z,22.75
2019-05-02T08:30:44.456Z,21.48
2019-05-02T08:33:47.656Z,19.55
2019-05-02T08:36:50.796Z,21.82
2019-05-02T08:39:53.876Z,16.50
2019-05-02T08:42:57.137Z,16.80
2019-05-02T08:46:00.476Z,20.20
2019-05-02T08:49:03.941Z,19.75
2019-05-02T08:52:07.377Z,17.05
2019-05-02T08:55:11.088Z,19.17
2019-05-02T08:58:15.867Z,19.23
2019-05-02T09:01:19.342Z,16.50
2019-05-02T09:04:24.091Z,23.52
2019-05-02T09:07:31.702Z,17.42
2019-05-02T09:10:32.586Z,18.40
2019-05-02T09:13:37.321Z,20.52
2019-05-02T09:16:42.632Z,21.40
2019-05-02T09:19:59.150Z,21.73
2019-05-02T09:22:52.215Z,17.30
2019-05-02T09:25:55.318Z,19.92
2019-05-02T09:29:01.666Z,16.97
2019-05-02T09:32:04.482Z,15.20
2019-05-02T09:35:08.961Z,20.17
2019-05-02T09:38:12.923Z,21.27
2019-05-02T09:41:19.431Z,25.85
2019-05-02T09:44:22.354Z,24.12
2019-05-02T09:47:27.334Z,29.30
2019-05-02T09:50:32.150Z,22.70
2019-05-02T09:53:36.030Z,22.98
2019-05-02T09:56:39.254Z,23.67
2019-05-02T09:59:50.428Z,24.12
2019-05-02T10:02:47.557Z,21.42
2019-05-02T10:05:52.343Z,29.80
2019-05-02T10:08:55.799Z,22.58
2019-05-02T10:11:58.927Z,29.90
2019-05-02T10:15:04.042Z,28.50
2019-05-02T10:18:11.217Z,21.48
2019-05-02T10:21:16.936Z,25.27
2019-05-02T10:24:17.697Z,25.10
2019-05-02T10:27:21.668Z,24.02
2019-05-02T10:30:26.917Z,24.67
2019-05-02T10:33:33.639Z,23.22
2019-05-02T10:36:35.312Z,24.18
2019-05-02T10:39:39.529Z,27.90
2019-05-02T10:42:42.606Z,25.10
2019-05-02T10:45:54.865Z,18.20
2019-05-02T10:49:01.862Z,22.13
2019-05-02T10:52:58.329Z,23.18
2019-05-02T10:56:02.693Z,28.83
2019-05-02T10:59:05.967Z,24.95
2019-05-02T11:02:25.632Z,24.05
2019-05-02T11:05:31.257Z,27.05
2019-05-02T11:08:36.740Z,25.27
2019-05-02T11:11:42.364Z,26.15
2019-05-02T11:14:53.751Z,23.85
2019-05-02T11:17:57.080Z,26.33
2019-05-02T11:21:06.836Z,20.35
2019-05-02T11:24:05.219Z,24.50
2019-05-02T11:27:08.473Z,27.55
2019-05-02T11:30:16.768Z,24.23
2019-05-02T11:33:17.770Z,22.77
2019-05-02T11:36:22.285Z,22.05
2019-05-02T11:39:33.528Z,28.35
2019-05-02T11:42:32.334Z,30.23
2019-05-02T11:45:35.665Z,28.12
2019-05-02T11:48:38.777Z,24.50
2019-05-02T11:51:42.271Z,26.02
2019-05-02T11:54:48.441Z,27.77
2019-05-02T11:57:52.236Z,24.25
2019-05-02T12:00:55.125Z,23.20
2019-05-02T12:03:58.317Z,26.05
2019-05-02T12:07:04.958Z,25.20
2019-05-02T12:10:07.273Z,22.30
2019-05-02T12:13:11.930Z,20.62
2019-05-02T12:16:16.196Z,27.90
2019-05-02T12:19:19.349Z,26.00
2019-05-02T12:22:22.664Z,21.48
2019-05-02T12:25:26.045Z,25.50
2019-05-02T12:28:29.558Z,24.27
2019-05-02T12:31:33.118Z,21.70
2019-05-02T12:34:36.453Z,25.80
2019-05-02T12:37:39.372Z,20.92
2019-05-02T12:40:42.526Z,24.50
2019-05-02T12:43:45.814Z,24.35
2019-05-02T12:46:48.985Z,23.38
2019-05-02T12:49:52.425Z,19.73
2019-05-02T12:52:55.821Z,23.27
2019-05-02T12:55:58.995Z,26.85
2019-05-02T12:59:02.584Z,21.85
2019-05-02T13:02:08.920Z,22.90
2019-05-02T13:05:13.177Z,18.42
2019-05-02T13:08:16.598Z,23.92
2019-05-02T13:11:44.497Z,20.27
2019-05-02T13:14:46.553Z,28.00
2019-05-02T13:17:52.009Z,25.20
2019-05-02T13:20:56.166Z,28.75
2019-05-02T13:24:16.722Z,26.85
2019-05-02T13:27:20.081Z,26.73
2019-05-02T13:30:42.856Z,30.60
2019-05-02T13:33:45.236Z,26.93
2019-05-02T13:36:49.026Z,30.17
2019-05-02T13:40:12.063Z,25.75
2019-05-02T13:43:16.814Z,23.05
2019-05-02T13:46:22.274Z,26.90
2019-05-02T13:49:25.533Z,31.07
2019-05-02T13:52:29.071Z,22.17
2019-05-02T13:55:37.346Z,23.15
2019-05-02T13:58:42.371Z,24.98
2019-05-02T14:01:47.725Z,20.05
2019-05-02T14:04:52.141Z,17.85
2019-05-02T14:08:12.986Z,20.48
2019-05-02T14:11:34.402Z,19.00
2019-05-02T14:14:37.762Z,20.32
2019-05-02T14:17:42.318Z,22.40
2019-05-02T14:20:46.686Z,20.43
2019-05-02T14:23:51.790Z,23.85
2019-05-02T14:26:55.521Z,18.30
2019-05-02T14:29:58.818Z,18.15
2019-05-02T14:33:05.953Z,16.15
2019-05-02T14:36:09.205Z,19.02
2019-05-02T14:39:12.546Z,19.30
2019-05-02T14:42:24.390Z,19.73
2019-05-02T14:45:30.794Z,18.57
2019-05-02T14:48:28.986Z,26.57
2019-05-02T14:51:36.468Z,28.20
2019-05-02T14:54:43.877Z,22.73
2019-05-02T14:57:43.644Z,25.02
2019-05-02T15:00:48.860Z,25.57
2019-05-02T15:03:52.919Z,22.13
2019-05-02T15:06:56.229Z,30.27
2019-05-02T15:10:02.681Z,27.90
2019-05-02T15:13:06.996Z,25.37
2019-05-02T15:16:17.439Z,30.50
2019-05-02T15:19:15.255Z,23.65
2019-05-02T15:22:18.665Z,25.97
2019-05-02T15:25:22.035Z,30.27
2019-05-02T15:28:25.346Z,27.80
2019-05-02T15:31:33.743Z,27.65
2019-05-02T15:34:54.391Z,29.70
2019-05-02T15:38:02.649Z,26.55
2019-05-02T15:41:05.060Z,25.45
2019-05-02T15:44:08.033Z,29.07
2019-05-02T15:47:12.441Z,30.80
2019-05-02T15:50:23.832Z,29.42
2019-05-02T15:53:26.173Z,31.23
2019-05-02T15:56:29.549Z,32.53
2019-05-02T15:59:42.311Z,30.27
2019-05-02T16:02:42.679Z,33.15
2019-05-02T16:05:46.099Z,31.15
2019-05-02T16:08:49.258Z,29.50
2019-05-02T16:11:55.747Z,30.52
2019-05-02T16:14:57.662Z,31.40
2019-05-02T16:18:03.990Z,29.90
2019-05-02T16:21:11.925Z,25.65
2019-05-02T16:24:22.887Z,26.95
2019-05-02T16:28:02.667Z,28.47
2019-05-02T16:31:05.483Z,30.17
2019-05-02T16:34:08.594Z,30.85
2019-05-02T16:37:16.639Z,33.67
2019-05-02T16:40:22.088Z,30.88
2019-05-02T16:43:24.798Z,28.40
2019-05-02T16:46:28.372Z,30.37
2019-05-02T16:49:32.192Z,31.27
2019-05-02T16:52:38.051Z,30.52
2019-05-02T16:55:43.451Z,34.45
2019-05-02T16:58:47.261Z,33.67
2019-05-02T17:01:54.172Z,33.35
2019-05-02T17:05:00.129Z,31.35
2019-05-02T17:08:20.187Z,31.75
2019-05-02T17:11:34.514Z,33.95
2019-05-02T17:14:33.130Z,30.85
2019-05-02T17:17:36.386Z,33.13
2019-05-02T17:20:39.421Z,39.33
2019-05-02T17:23:46.470Z,37.60
2019-05-02T17:26:48.067Z,38.17
2019-05-02T17:29:54.275Z,38.88
2019-05-02T17:32:56.403Z,45.00
2019-05-02T17:35:59.686Z,40.58
2019-05-02T17:39:08.083Z,48.23
2019-05-02T17:42:12.473Z,53.38
2019-05-02T17:45:16.252Z,58.08
2019-05-02T17:48:23.943Z,54.45
2019-05-02T17:51:49.331Z,65.22
2019-05-02T17:54:57.244Z,49.42
2019-05-02T17:57:58.122Z,57.53
2019-05-02T18:01:02.984Z,60.33
2019-05-02T18:04:12.510Z,67.92
2019-05-02T18:07:11.702Z,63.08
2019-05-02T18:10:21.965Z,64.97
2019-05-02T18:13:20.018Z,64.22
2019-05-02T18:16:23.111Z,73.22
2019-05-02T18:19:26.217Z,67.85
2019-05-02T18:22:29.407Z,75.95
2019-05-02T18:25:32.515Z,58.33
2019-05-02T18:28:46.188Z,57.23
2019-05-02T18:31:47.128Z,53.98
2019-05-02T18:34:45.595Z,55.63
2019-05-02T18:37:48.810Z,53.30
2019-05-02T18:40:53.005Z,53.52
2019-05-02T18:43:57.028Z,53.48
2019-05-02T18:47:02.301Z,58.70
2019-05-02T18:50:15.163Z,55.30
2019-05-02T18:53:22.921Z,55.58
2019-05-02T18:56:23.557Z,59.00
2019-05-02T18:59:27.751Z,61.50
2019-05-02T19:06:03.202Z,64.60
2019-05-02T19:09:09.585Z,64.47
2019-05-02T19:12:21.513Z,63.92
2019-05-02T19:15:39.650Z,72.47
2019-05-02T19:18:42.496Z,70.03
2019-05-02T19:21:45.601Z,81.12
2019-05-02T19:24:48.576Z,62.48
2019-05-02T19:27:59.338Z,58.55
2019-05-02T19:31:06.888Z,56.18
2019-05-02T19:34:11.990Z,57.80
2019-05-02T19:37:16.413Z,56.40
2019-05-02T19:40:26.958Z,57.35
2019-05-02T19:43:28.587Z,47.08
2019-05-02T19:46:38.610Z,45.65
2019-05-02T19:49:37.198Z,51.35
2019-05-02T19:52:42.918Z,48.60
2019-05-02T19:55:46.241Z,50.98
2019-05-02T19:58:49.778Z,52.67
2019-05-02T20:01:56.867Z,35.65
2019-05-02T20:04:58.994Z,32.45
2019-05-02T20:08:02.594Z,35.83
2019-05-02T20:11:06.013Z,31.33
2019-05-02T20:14:09.776Z,32.65
2019-05-02T20:17:14.919Z,27.87
2019-05-02T20:20:48.631Z,23.85
2019-05-02T20:23:52.228Z,29.95
2019-05-02T20:26:56.184Z,26.35
2019-05-02T20:29:59.382Z,26.05
2019-05-02T20:33:05.042Z,29.10
2019-05-02T20:36:07.005Z,28.30
2019-05-02T20:39:11.773Z,26.85
2019-05-02T20:42:14.669Z,28.15
2019-05-02T20:45:17.609Z,26.68
2019-05-02T20:48:22.642Z,28.40
2019-05-02T20:51:25.283Z,25.68
2019-05-02T20:54:28.213Z,24.30
2019-05-02T20:57:31.833Z,25.27
2019-05-02T21:00:35.494Z,26.57
2019-05-02T21:03:38.377Z,19.48
2019-05-02T21:07:06.665Z,18.75
2019-05-02T21:10:22.643Z,21.02
2019-05-02T21:13:25.474Z,15.93
2019-05-02T21:16:28.442Z,13.50
2019-05-02T21:19:50.882Z,12.15
2019-05-02T21:22:53.678Z,8.45
2019-05-02T21:25:56.481Z,7.67
2019-05-02T21:28:59.331Z,5.78
2019-05-02T21:32:02.218Z,6.10
2019-05-02T21:35:05.422Z,5.20
2019-05-02T21:38:08.293Z,3.98
2019-05-02T21:41:13.014Z,7.70
2019-05-02T21:44:16.790Z,4.65
2019-05-02T21:47:22.311Z,5.47
2019-05-02T21:50:45.233Z,3.85
2019-05-02T21:54:02.958Z,3.72
2019-05-02T21:57:15.053Z,2.72
2019-05-02T22:00:42.054Z,3.65
2019-05-02T22:03:45.278Z,3.67
2019-05-02T22:06:48.611Z,4.33
2019-05-02T22:09:52.391Z,7.05
2019-05-02T22:12:55.513Z,5.72
2019-05-02T22:15:58.349Z,9.85
2019-05-02T22:19:02.892Z,7.12
2019-05-02T22:22:06.118Z,4.05
2019-05-02T22:25:11.505Z,3.40
2019-05-02T22:28:14.635Z,5.95
2019-05-02T22:31:17.869Z,7.40
2019-05-02T22:34:22.039Z,2.58
2019-05-02T22:37:25.837Z,3.33
2019-05-02T22:40:29.081Z,6.37
2019-05-02T22:43:32.751Z,8.05
2019-05-02T22:46:43.629Z,9.80
2019-05-02T22:49:46.930Z,7.45
2019-05-02T22:52:52.090Z,9.10
2019-05-02T22:55:55.101Z,3.95
2019-05-02T22:58:58.248Z,6.75
2019-05-02T23:02:02.148Z,4.10
2019-05-02T23:05:05.882Z,6.78
2019-05-02T23:08:08.974Z,5.47
2019-05-02T23:11:12.968Z,5.25
2019-05-02T23:14:16.280Z,5.80
2019-05-02T23:17:19.366Z,5.10
2019-05-02T23:20:24.431Z,5.17
2019-05-02T23:23:27.507Z,4.15
2019-05-02T23:26:58.734Z,7.47
2019-05-02T23:30:02.956Z,6.53
2019-05-02T23:33:06.273Z,6.17
2019-05-02T23:36:09.165Z,7.42
2019-05-02T23:39:12.440Z,4.83
2019-05-02T23:42:15.957Z,5.50
2019-05-02T23:45:19.056Z,7.43
2019-05-02T23:48:22.143Z,4.53
2019-05-02T23:51:25.110Z,6.10
2019-05-02T23:54:28.000Z,6.53
2019-05-02T23:57:32.454Z,5.65
